Time;durP1;ratioP1;P1;durP2;ratioP2;P2;SDS_P1;SDS_P2;PMS_P1;PMS_P2;Temp;Humidity;BMP_temperature;BMP_pressure;BME280_temperature;BME280_humidity;BME280_pressure;Samples;Min_cycle;Max_cycle;Signal;HPM_P1;HPM_P2
2023/01/23 00:00:06;;;;;;;56.77;25.93;;;;;;;9.37;100.00;100115.56;5111208;28;20205;-60
2023/01/23 00:02:49;;;;;;;46.23;22.63;;;;;;;9.23;100.00;100089.03;5112198;28;20311;-57
2023/01/23 00:05:53;;;;;;;43.97;24.37;;;;;;;9.36;100.00;100104.38;5113778;28;20289;-57
2023/01/23 00:08:53;;;;;;;49.33;23.07;;;;;;;9.46;100.00;100116.31;5113884;28;20194;-56
2023/01/23 00:12:03;;;;;;;56.33;23.03;;;;;;;9.47;100.00;100114.59;5113280;28;20195;-61
2023/01/23 00:14:56;;;;;;;43.17;22.60;;;;;;;9.52;100.00;100117.94;5113936;28;20640;-56
2023/01/23 00:17:47;;;;;;;47.03;21.60;;;;;;;9.52;100.00;100109.31;5111582;28;20219;-61
2023/01/23 00:21:00;;;;;;;42.30;21.97;;;;;;;9.45;100.00;100109.44;5109474;28;20706;-61
2023/01/23 00:24:04;;;;;;;43.60;22.17;;;;;;;9.39;100.00;100125.03;5112830;28;20645;-61
2023/01/23 00:27:17;;;;;;;42.03;19.70;;;;;;;9.40;100.00;100118.13;5113565;28;20286;-61
2023/01/23 00:30:11;;;;;;;46.97;22.93;;;;;;;9.34;100.00;100120.81;5113140;28;20273;-60
2023/01/23 00:33:04;;;;;;;49.37;21.67;;;;;;;9.40;100.00;100116.41;5112963;28;20569;-56
2023/01/23 00:36:03;;;;;;;53.97;24.33;;;;;;;9.35;100.00;100113.03;5113498;28;20198;-56
2023/01/23 00:39:22;;;;;;;52.43;24.37;;;;;;;9.43;100.00;100115.50;5113006;28;20232;-57
2023/01/23 00:42:18;;;;;;;44.87;23.37;;;;;;;9.42;100.00;100118.97;5112764;28;20718;-61
2023/01/23 00:45:12;;;;;;;43.53;23.80;;;;;;;9.43;100.00;100121.53;5111970;28;20281;-61
2023/01/23 00:48:03;;;;;;;52.73;23.87;;;;;;;9.44;100.00;100119.81;5111099;28;20199;-61
2023/01/23 00:50:53;;;;;;;49.03;23.47;;;;;;;9.48;100.00;100123.22;5113207;28;20659;-61
2023/01/23 00:53:59;;;;;;;52.37;24.50;;;;;;;9.44;100.00;100127.59;5111648;28;20191;-60
2023/01/23 00:57:09;;;;;;;50.70;24.67;;;;;;;9.42;100.00;100144.88;5112086;28;20629;-60
2023/01/23 00:59:56;;;;;;;57.80;25.83;;;;;;;9.41;100.00;100144.03;5111458;28;20203;-60
2023/01/23 01:02:36;;;;;;;55.73;25.60;;;;;;;9.43;100.00;100154.38;5112382;28;20583;-56
2023/01/23 01:05:20;;;;;;;50.53;26.13;;;;;;;9.43;100.00;100149.19;5112504;28;20285;-61
2023/01/23 01:08:10;;;;;;;53.07;23.60;;;;;;;9.47;100.00;100137.91;5112169;28;20198;-56
2023/01/23 01:11:01;;;;;;;47.67;21.90;;;;;;;9.43;100.00;100144.00;5109392;28;20230;-56
2023/01/23 01:14:15;;;;;;;49.63;22.23;;;;;;;9.48;100.00;100149.13;5110260;28;20198;-56
2023/01/23 01:20:25;;;;;;;58.70;22.73;;;;;;;9.51;100.00;100160.28;5112822;28;20198;-56
2023/01/23 01:23:21;;;;;;;50.83;19.60;;;;;;;9.51;100.00;100157.69;5111160;28;20281;-57
2023/01/23 01:26:06;;;;;;;41.00;21.37;;;;;;;9.48;100.00;100163.78;5112389;28;20191;-57
2023/01/23 01:29:06;;;;;;;44.77;22.00;;;;;;;9.49;100.00;100162.03;5110901;28;20194;-58
2023/01/23 01:32:33;;;;;;;41.70;22.57;;;;;;;9.48;100.00;100176.72;5112100;28;20286;-57
2023/01/23 01:35:26;;;;;;;53.67;22.53;;;;;;;9.44;100.00;100158.69;5112048;28;20259;-56
2023/01/23 01:38:07;;;;;;;48.90;23.10;;;;;;;9.52;100.00;100169.78;5109988;28;20642;-61
2023/01/23 01:41:11;;;;;;;36.57;21.27;;;;;;;9.46;100.00;100175.06;5071546;28;20231;-57
2023/01/23 01:44:24;;;;;;;;;;;;;;;;;;;;;
2023/01/23 01:47:23;;;;;;;49.40;23.70;;;;;;;9.44;100.00;100174.22;5071550;28;20202;-61
2023/01/23 01:50:12;;;;;;;47.23;22.20;;;;;;;9.48;100.00;100175.06;5071421;28;20668;-60
2023/01/23 01:53:09;;;;;;;53.63;22.30;;;;;;;9.49;100.00;100172.41;5071354;28;20200;-61
2023/01/23 01:59:15;;;;;;;47.57;22.47;;;;;;;9.52;100.00;100162.00;5069556;28;20231;-60
2023/01/23 02:02:12;;;;;;;54.30;22.50;;;;;;;9.46;100.00;100167.28;5070861;28;20223;-60
2023/01/23 02:05:06;;;;;;;50.30;24.97;;;;;;;9.44;100.00;100174.22;5070614;28;20196;-56
2023/01/23 02:08:02;;;;;;;49.87;22.80;;;;;;;9.47;100.00;100169.00;5071281;28;20200;-61
2023/01/23 02:10:31;;;;;;;50.03;23.97;;;;;;;9.51;100.00;100169.78;5070838;28;20267;-61
2023/01/23 02:13:45;;;;;;;46.77;22.53;;;;;;;9.49;100.00;100172.41;5070866;28;20196;-56
2023/01/23 02:16:39;;;;;;;52.67;25.53;;;;;;;9.50;100.00;100175.84;5069024;28;20203;-56
2023/01/23 02:19:44;;;;;;;55.03;24.90;;;;;;;9.51;100.00;100164.63;5070316;28;20637;-56
2023/01/23 02:22:56;;;;;;;47.07;21.63;;;;;;;9.51;100.00;100174.97;5069789;28;20285;-56
2023/01/23 02:25:50;;;;;;;52.47;23.67;;;;;;;9.52;100.00;100174.97;5070501;28;20249;-56
2023/01/23 02:29:06;;;;;;;46.97;23.53;;;;;;;9.47;100.00;100163.81;5070552;28;20321;-61
2023/01/23 02:31:55;;;;;;;53.60;23.17;;;;;;;9.36;100.00;100166.56;5070811;28;20660;-61
2023/01/23 02:37:42;;;;;;;53.53;24.10;;;;;;;9.42;100.00;100166.47;5064523;28;20223;-60
2023/01/23 02:40:39;;;;;;;39.20;22.00;;;;;;;9.48;100.00;100178.47;5107142;28;20718;-60
2023/01/23 02:43:44;;;;;;;44.93;21.13;;;;;;;9.42;100.00;100170.78;5108071;28;20210;-57
2023/01/23 02:46:52;;;;;;;49.03;21.93;;;;;;;9.39;100.00;100166.50;5109343;28;20194;-55
2023/01/23 02:50:19;;;;;;;;;;;;;;;;;;;;;
2023/01/23 02:53:10;;;;;;;34.03;19.47;;;;;;;9.43;100.00;100178.53;5108402;28;20198;-56
2023/01/23 03:05:15;;;;;;;48.67;21.93;;;;;;;9.23;100.00;100185.72;5105498;28;20573;-56
2023/01/23 03:08:07;;;;;;;48.57;21.47;;;;;;;9.30;100.00;100189.09;5109063;28;20240;-60
2023/01/23 03:14:00;;;;;;;52.13;21.43;;;;;;;9.17;100.00;100156.44;5107830;28;20629;-56
2023/01/23 03:16:59;;;;;;;44.73;20.87;;;;;;;9.26;100.00;100182.22;5109552;28;20278;-60
2023/01/23 03:23:00;;;;;;;45.23;20.97;;;;;;;9.32;100.00;100189.94;5107708;28;20232;-59
2023/01/23 03:25:57;;;;;;;40.77;20.67;;;;;;;9.35;100.00;100189.91;5108257;28;20552;-55
2023/01/23 03:31:42;;;;;;;37.90;18.37;;;;;;;9.17;100.00;100165.06;5110129;28;20709;-58
2023/01/23 03:38:10;;;;;;;49.57;21.40;;;;;;;9.36;100.00;100192.47;5108450;28;20202;-59
2023/01/23 03:44:07;;;;;;;48.70;21.30;;;;;;;9.28;100.00;100183.06;5110321;28;20287;-59
2023/01/23 03:47:14;;;;;;;40.10;20.90;;;;;;;9.26;100.00;100197.75;5110085;28;20199;-60
2023/01/23 03:50:10;;;;;;;55.33;21.63;;;;;;;9.23;100.00;100195.22;5108601;28;20198;-60
2023/01/23 03:56:04;;;;;;;58.50;22.23;;;;;;;9.21;100.00;100197.84;5108895;28;20581;-60
2023/01/23 03:59:03;;;;;;;47.27;20.23;;;;;;;9.14;100.00;100196.22;5109820;28;20199;-61
2023/01/23 04:02:00;;;;;;;48.57;23.27;;;;;;;9.17;100.00;100203.06;5107610;28;20309;-59
2023/01/23 04:04:44;;;;;;;47.43;23.47;;;;;;;9.22;100.00;100206.47;5108738;28;20191;-59
2023/01/23 04:07:41;;;;;;;46.23;21.73;;;;;;;9.15;100.00;100194.44;5109664;28;20559;-59
2023/01/23 04:10:42;;;;;;;50.67;23.23;;;;;;;9.11;100.00;100204.00;5109837;28;20222;-59
2023/01/23 04:22:21;;;;;;;47.87;20.83;;;;;;;8.97;100.00;100230.06;5108303;28;20233;-56
2023/01/23 04:25:22;;;;;;;43.07;21.47;;;;;;;8.95;100.00;100225.75;5108582;28;20302;-56
2023/01/23 04:28:24;;;;;;;52.40;23.90;;;;;;;8.95;100.00;100226.63;5108778;28;20195;-56
2023/01/23 04:31:10;;;;;;;48.40;22.50;;;;;;;8.95;100.00;100236.13;5109638;28;20707;-56
2023/01/23 04:34:03;;;;;;;52.33;23.53;;;;;;;8.98;100.00;100234.38;5109804;28;20304;-55
2023/01/23 04:39:52;;;;;;;47.93;21.20;;;;;;;8.87;100.00;100230.16;5107364;28;20230;-58
2023/01/23 04:42:47;;;;;;;44.43;19.27;;;;;;;8.95;100.00;100238.69;5103889;28;20309;-60
2023/01/23 04:48:57;;;;;;;42.30;19.37;;;;;;;8.83;100.00;100239.69;5111442;28;20290;-59
2023/01/23 04:54:48;;;;;;;42.27;19.93;;;;;;;8.81;100.00;100250.91;5111796;28;20631;-56
2023/01/23 05:00:32;;;;;;;43.27;20.30;;;;;;;8.82;100.00;100263.00;5100913;28;20194;-56
2023/01/23 05:03:31;;;;;;;47.43;19.10;;;;;;;8.83;100.00;100262.97;5110514;28;20262;-56
2023/01/23 05:06:18;;;;;;;38.27;21.07;;;;;;;8.73;100.00;100256.19;5111739;28;20201;-57
2023/01/23 05:09:20;;;;;;;37.80;18.03;;;;;;;8.70;100.00;100261.38;5111835;28;20670;-57
2023/01/23 05:12:15;;;;;;;40.33;18.53;;;;;;;8.79;100.00;100274.25;5106055;28;20190;-60
2023/01/23 05:15:06;;;;;;;40.30;18.50;;;;;;;8.77;100.00;100291.53;5112862;28;20201;-61
2023/01/23 05:17:38;;;;;;;41.43;17.30;;;;;;;8.76;100.00;100294.13;5108974;28;20206;-60
2023/01/23 05:29:14;;;;;;;42.23;19.27;;;;;;;8.54;100.00;100306.41;5103766;28;20199;-56
2023/01/23 05:41:29;;;;;;;42.43;18.60;;;;;;;8.59;100.00;100310.66;5071113;28;20684;-55
2023/01/23 05:44:37;;;;;;;35.13;17.03;;;;;;;8.58;100.00;100321.00;5070859;28;20239;-57
2023/01/23 05:47:34;;;;;;;36.43;17.43;;;;;;;8.56;100.00;100320.19;5071263;28;20296;-60
2023/01/23 05:50:23;;;;;;;37.10;16.90;;;;;;;8.48;100.00;100312.47;5070238;28;20207;-59
2023/01/23 05:52:51;;;;;;;36.87;17.87;;;;;;;8.52;100.00;100327.09;5070500;28;20565;-59
2023/01/23 05:58:14;;;;;;;42.93;19.63;;;;;;;8.49;100.00;100324.53;5071031;28;20275;-59
2023/01/23 06:03:38;;;;;;;34.63;17.40;;;;;;;8.50;100.00;100339.19;5069048;28;20224;-59
2023/01/23 06:06:27;;;;;;;36.93;18.43;;;;;;;8.55;100.00;100346.94;5069822;28;20204;-60
2023/01/23 06:09:10;;;;;;;32.87;16.27;;;;;;;8.49;100.00;100334.88;5070804;28;20203;-56
2023/01/23 06:12:05;;;;;;;37.40;17.53;;;;;;;8.47;100.00;100338.34;5069546;28;20204;-56
2023/01/23 06:14:55;;;;;;;33.47;15.73;;;;;;;8.54;100.00;100348.66;5069145;28;20196;-56
2023/01/23 06:17:46;;;;;;;30.17;17.13;;;;;;;8.55;100.00;100354.69;5071317;28;20267;-57
2023/01/23 06:20:46;;;;;;;37.00;19.23;;;;;;;8.58;100.00;100360.69;5070343;28;20200;-57
2023/01/23 06:23:28;;;;;;;34.70;17.13;;;;;;;8.56;100.00;100364.19;5068719;28;20738;-56
2023/01/23 06:26:04;;;;;;;31.37;16.40;;;;;;;8.66;100.00;100369.28;5063509;28;20736;-57
2023/01/23 06:28:35;;;;;;;38.67;18.37;;;;;;;8.67;100.00;100368.41;5049475;28;20231;-56
2023/01/23 06:31:14;;;;;;;33.40;16.07;;;;;;;8.66;100.00;100374.44;5050150;28;20224;-57
2023/01/23 06:33:54;;;;;;;32.20;15.20;;;;;;;8.83;100.00;100371.72;5049866;28;20708;-55
2023/01/23 06:36:26;;;;;;;34.70;16.40;;;;;;;8.76;100.00;100366.59;5049624;28;20220;-56
2023/01/23 06:39:00;;;;;;;31.83;15.93;;;;;;;8.73;100.00;100383.88;5058557;28;20317;-59
2023/01/23 06:41:35;;;;;;;28.13;15.43;;;;;;;8.71;100.00;100382.16;5104016;28;20244;-59
2023/01/23 06:44:08;;;;;;;31.27;15.03;;;;;;;8.65;100.00;100388.25;5109070;28;20221;-59
2023/01/23 06:46:42;;;;;;;33.00;17.03;;;;;;;8.54;100.00;100389.19;5101752;28;20221;-59
2023/01/23 06:49:10;;;;;;;37.33;14.80;;;;;;;8.51;100.00;100405.59;5108693;28;20246;-56
2023/01/23 06:51:37;;;;;;;32.70;15.73;;;;;;;8.49;100.00;100402.16;5110097;28;20209;-56
2023/01/23 06:54:05;;;;;;;27.97;15.67;;;;;;;8.51;100.00;100402.13;5110216;28;20242;-56
2023/01/23 06:56:32;;;;;;;28.77;15.73;;;;;;;8.55;100.00;100401.25;5110653;28;20234;-56
2023/01/23 06:58:59;;;;;;;32.23;13.77;;;;;;;8.47;100.00;100398.69;5110486;28;20198;-55
2023/01/23 07:01:28;;;;;;;27.37;15.03;;;;;;;8.43;100.00;100412.53;5110607;28;20339;-55
2023/01/23 07:03:55;;;;;;;33.63;15.30;;;;;;;8.47;100.00;100405.59;5110669;28;20651;-56
2023/01/23 07:06:22;;;;;;;30.87;15.67;;;;;;;8.49;100.00;100412.50;5110922;28;20202;-56
2023/01/23 07:08:50;;;;;;;32.10;16.47;;;;;;;8.57;100.00;100400.41;5110213;28;20202;-56
2023/01/23 07:11:17;;;;;;;35.77;15.83;;;;;;;8.61;100.00;100404.66;5110334;28;20346;-57
2023/01/23 07:13:44;;;;;;;29.00;14.43;;;;;;;8.64;100.00;100407.22;5110522;28;20187;-57
2023/01/23 07:16:11;;;;;;;26.90;14.50;;;;;;;8.68;100.00;100403.75;5110398;28;20203;-60
2023/01/23 07:18:39;;;;;;;24.70;12.80;;;;;;;8.68;100.00;100408.94;5110525;28;20204;-60
2023/01/23 07:21:20;;;;;;;24.50;12.97;;;;;;;8.68;100.00;100411.53;5110460;28;20309;-59
2023/01/23 07:24:11;;;;;;;25.87;12.13;;;;;;;8.66;100.00;100408.09;5110403;28;20226;-56
2023/01/23 07:26:49;;;;;;;26.73;12.00;;;;;;;8.64;100.00;100417.59;5110398;28;20190;-56
2023/01/23 07:29:38;;;;;;;25.00;13.27;;;;;;;8.65;100.00;100415.84;5108473;28;20195;-56
2023/01/23 07:35:29;;;;;;;22.97;14.83;;;;;;;8.61;100.00;100402.06;5110280;28;20638;-61
2023/01/23 07:38:22;;;;;;;20.27;11.07;;;;;;;8.61;100.00;100412.41;5108602;28;20214;-61
2023/01/23 07:44:33;;;;;;;27.37;14.17;;;;;;;8.70;100.00;100412.34;5109360;28;20616;-61
2023/01/23 07:47:02;;;;;;;32.87;15.03;;;;;;;8.63;100.00;100394.31;5109706;28;20197;-60
2023/01/23 07:49:52;;;;;;;30.13;15.43;;;;;;;8.69;100.00;100409.81;5110154;28;20281;-60
2023/01/23 07:52:47;;;;;;;27.53;14.50;;;;;;;8.69;100.00;100408.03;5109579;28;20248;-56
2023/01/23 07:55:44;;;;;;;33.63;14.80;;;;;;;8.70;100.00;100404.59;5108370;28;20248;-55
2023/01/23 07:58:31;;;;;;;29.07;14.30;;;;;;;8.70;100.00;100406.31;5109579;28;20191;-55
2023/01/23 08:01:23;;;;;;;28.67;15.03;;;;;;;8.74;100.00;100408.03;5109977;28;20201;-56
2023/01/23 08:04:12;;;;;;;25.50;14.63;;;;;;;8.70;100.00;100414.94;5108651;28;20224;-56
2023/01/23 08:07:03;;;;;;;32.57;14.87;;;;;;;8.77;100.00;100418.38;5109585;28;20225;-55
2023/01/23 08:09:51;;;;;;;24.37;13.77;;;;;;;8.77;100.00;100410.59;5093126;28;20223;-58
2023/01/23 08:12:44;;;;;;;37.37;16.70;;;;;;;8.80;100.00;100417.50;5102709;28;20677;-56
2023/01/23 08:21:09;;;;;;;31.43;15.17;;;;;;;8.90;100.00;100411.38;5108453;28;20661;-56
2023/01/23 08:24:01;;;;;;;30.50;15.03;;;;;;;8.85;100.00;100426.94;5113263;28;20733;-55
2023/01/23 08:26:49;;;;;;;35.03;16.53;;;;;;;8.72;100.00;100420.97;5104192;28;20229;-56
2023/01/23 08:29:20;;;;;;;36.50;17.10;;;;;;;8.81;100.00;100424.34;5088769;28;20219;-56
2023/01/23 08:32:17;;;;;;;35.83;17.83;;;;;;;8.84;100.00;100420.03;5092316;28;20762;-56
2023/01/23 08:35:06;;;;;;;32.63;14.73;;;;;;;8.86;100.00;100420.03;5089774;28;20304;-56
2023/01/23 08:37:47;;;;;;;27.30;14.13;;;;;;;8.89;100.00;100433.81;5092093;28;20211;-54
2023/01/23 08:40:30;;;;;;;27.20;15.33;;;;;;;8.84;100.00;100429.53;5089519;28;20243;-55
2023/01/23 08:43:34;;;;;;;31.13;15.53;;;;;;;8.86;100.00;100444.19;5090647;28;20272;-55
2023/01/23 08:46:19;;;;;;;31.03;14.07;;;;;;;8.84;100.00;100434.69;5092164;28;20227;-54
2023/01/23 08:49:03;;;;;;;25.40;14.03;;;;;;;8.84;100.00;100445.06;5095319;28;20225;-56
2023/01/23 08:51:40;;;;;;;30.73;15.07;;;;;;;8.82;100.00;100437.28;5107451;28;20198;-56
2023/01/23 08:54:19;;;;;;;29.53;15.10;;;;;;;8.88;100.00;100446.75;5109216;28;20194;-55
2023/01/23 08:56:49;;;;;;;33.70;15.33;;;;;;;8.86;100.00;100446.78;5111188;28;20198;-55
2023/01/23 08:59:25;;;;;;;32.60;14.50;;;;;;;8.83;100.00;100448.50;5111800;28;20225;-57
2023/01/23 09:02:17;;;;;;;29.97;15.07;;;;;;;8.81;100.00;100452.84;5107087;28;20594;-56
2023/01/23 09:05:12;;;;;;;25.23;15.07;;;;;;;8.80;100.00;100433.88;5106667;28;20222;-56
2023/01/23 09:08:00;;;;;;;38.67;16.70;;;;;;;8.87;100.00;100435.53;5111254;28;20213;-55
2023/01/23 09:10:59;;;;;;;34.60;17.43;;;;;;;8.92;100.00;100438.94;5109259;28;20187;-55
2023/01/23 09:13:43;;;;;;;41.47;17.47;;;;;;;8.88;100.00;100439.00;5109002;28;20202;-56
2023/01/23 09:16:56;;;;;;;36.27;17.73;;;;;;;8.89;100.00;100444.16;5109288;28;20228;-57
2023/01/23 09:19:46;;;;;;;34.83;13.80;;;;;;;8.77;100.00;100415.78;5110122;28;20623;-56
2023/01/23 09:22:22;;;;;;;29.20;15.83;;;;;;;8.94;100.00;100431.16;5109365;28;20666;-56
2023/01/23 09:25:13;;;;;;;29.07;15.43;;;;;;;8.91;100.00;100411.38;5109454;28;20680;-56
2023/01/23 09:28:08;;;;;;;32.07;16.13;;;;;;;9.03;100.00;100423.31;5110698;28;20191;-56
2023/01/23 09:30:54;;;;;;;32.43;15.80;;;;;;;9.00;100.00;100415.59;5110059;28;20682;-61
2023/01/23 09:34:02;;;;;;;38.27;18.83;;;;;;;9.08;100.00;100418.97;5110212;28;20218;-61
2023/01/23 09:36:46;;;;;;;32.07;16.30;;;;;;;9.00;100.00;100426.81;5104486;28;20348;-61
2023/01/23 09:39:41;;;;;;;30.33;15.03;;;;;;;8.97;100.00;100438.94;5102264;28;20234;-60
2023/01/23 09:42:42;;;;;;;29.30;14.57;;;;;;;8.92;100.00;100436.34;5111596;28;20209;-60
2023/01/23 09:45:39;;;;;;;26.77;14.17;;;;;;;8.99;100.00;100429.41;5109373;28;20222;-59
2023/01/23 09:48:59;;;;;;;28.23;12.43;;;;;;;8.93;100.00;100417.38;5110719;28;20223;-60
2023/01/23 09:52:07;;;;;;;39.03;16.93;;;;;;;9.00;100.00;100421.63;5111104;28;20710;-60
2023/01/23 09:55:08;;;;;;;32.70;16.00;;;;;;;9.08;100.00;100427.59;5110433;28;20218;-61
2023/01/23 09:58:00;;;;;;;34.10;17.07;;;;;;;9.12;100.00;100433.63;5111458;28;20607;-60
2023/01/23 10:00:48;;;;;;;26.90;15.90;;;;;;;9.11;100.00;100429.31;5088975;28;20231;-60
2023/01/23 10:03:30;;;;;;;21.67;12.63;;;;;;;9.18;100.00;100420.63;5088818;28;20227;-61
2023/01/23 10:06:24;;;;;;;25.27;13.97;;;;;;;9.28;100.00;100411.88;5090775;28;20226;-60
2023/01/23 10:09:19;;;;;;;33.63;19.37;;;;;;;9.42;100.00;100424.72;5090740;28;20219;-60
2023/01/23 10:12:14;;;;;;;22.67;13.73;;;;;;;9.23;100.00;100418.84;5091011;28;20223;-60
2023/01/23 10:15:26;;;;;;;27.67;16.43;;;;;;;9.21;100.00;100411.97;5090567;28;20226;-61
2023/01/23 10:18:33;;;;;;;41.10;21.27;;;;;;;9.22;100.00;100408.50;5086013;28;20275;-60
2023/01/23 10:24:52;;;;;;;35.10;15.33;;;;;;;9.18;100.00;100404.22;5087639;28;20611;-60
2023/01/23 10:30:48;;;;;;;22.67;14.07;;;;;;;9.13;100.00;100400.81;5088553;28;20611;-59
2023/01/23 10:33:50;;;;;;;25.07;14.27;;;;;;;9.21;100.00;100404.19;5090126;28;20223;-58
2023/01/23 10:36:56;;;;;;;16.80;10.13;;;;;;;9.12;100.00;100409.47;5088667;28;20285;-57
2023/01/23 10:46:08;;;;;;;26.37;15.07;;;;;;;9.24;100.00;100399.00;5088478;28;20277;-54
2023/01/23 10:49:13;;;;;;;;;;;;;;;;;;;;;
2023/01/23 10:52:20;;;;;;;33.10;15.80;;;;;;;9.22;100.00;100390.38;5089963;28;20567;-53
2023/01/23 10:55:13;;;;;;;32.93;16.57;;;;;;;9.22;100.00;100399.00;5090528;28;20199;-54
2023/01/23 10:58:06;;;;;;;36.50;21.30;;;;;;;9.17;100.00;100381.78;5085549;28;20221;-54
2023/01/23 11:00:45;;;;;;;27.97;15.87;;;;;;;9.10;100.00;100391.34;5088036;28;20203;-54
2023/01/23 11:03:34;;;;;;;36.27;16.83;;;;;;;9.10;100.00;100396.53;5090010;28;20330;-53
2023/01/23 11:06:27;;;;;;;;;;;;;;;;;;;;;
2023/01/23 11:09:30;;;;;;;37.50;20.43;;;;;;;9.15;100.00;100396.47;5085416;28;20221;-54
2023/01/23 11:12:33;;;;;;;30.33;14.23;;;;;;;9.11;100.00;100393.06;5088900;28;20202;-59
2023/01/23 11:15:47;;;;;;;35.20;16.47;;;;;;;9.02;100.00;100403.50;5089960;28;20203;-55
2023/01/23 11:19:02;;;;;;;42.03;19.40;;;;;;;9.06;100.00;100387.06;5089043;28;20598;-56
2023/01/23 11:22:01;;;;;;;36.33;18.43;;;;;;;9.06;100.00;100379.28;5088188;28;20199;-55
2023/01/23 11:24:52;;;;;;;40.10;21.07;;;;;;;9.06;100.00;100367.19;5088884;28;20223;-54
2023/01/23 11:27:32;;;;;;;40.37;18.10;;;;;;;9.06;100.00;100394.81;5089863;28;20286;-58
2023/01/23 11:31:06;;;;;;;24.10;15.40;;;;;;;9.00;100.00;100392.28;5089381;28;20203;-59
2023/01/23 11:34:04;;;;;;;30.87;16.30;;;;;;;8.77;100.00;100378.69;5090432;28;20678;-54
2023/01/23 11:40:13;;;;;;;39.00;19.43;;;;;;;8.79;100.00;100389.88;5087514;28;20726;-55
2023/01/23 11:43:32;;;;;;;36.70;18.33;;;;;;;8.78;100.00;100396.78;5100837;28;20202;-56
2023/01/23 11:46:48;;;;;;;36.20;17.23;;;;;;;8.80;100.00;100391.59;5106963;28;20287;-55
2023/01/23 11:50:05;;;;;;;37.03;16.93;;;;;;;8.81;100.00;100398.47;5103323;28;20290;-55
2023/01/23 11:53:04;;;;;;;30.83;15.57;;;;;;;8.78;100.00;100388.16;5102606;28;20194;-56
2023/01/23 11:59:11;;;;;;;30.17;15.77;;;;;;;8.80;100.00;100412.31;5111181;28;20194;-56
2023/01/23 12:02:07;;;;;;;36.90;15.23;;;;;;;8.71;100.00;100398.53;5110917;28;20194;-56
2023/01/23 12:05:15;;;;;;;29.20;14.97;;;;;;;8.72;100.00;100396.81;5110973;28;20213;-56
2023/01/23 12:08:07;;;;;;;33.77;16.93;;;;;;;8.79;100.00;100397.66;5111356;28;20222;-60
2023/01/23 12:10:56;;;;;;;28.83;15.07;;;;;;;8.76;100.00;100418.38;5109733;28;20195;-60
2023/01/23 12:14:05;;;;;;;28.97;14.87;;;;;;;8.69;100.00;100400.28;5111361;28;20739;-60
2023/01/23 12:17:03;;;;;;;26.77;14.93;;;;;;;8.76;100.00;100395.94;5107808;28;20194;-60
2023/01/23 12:20:11;;;;;;;31.60;16.17;;;;;;;8.83;100.00;100404.50;5108508;28;20205;-60
2023/01/23 12:23:05;;;;;;;27.63;15.43;;;;;;;8.87;100.00;100408.78;5110754;28;20225;-60
2023/01/23 12:25:48;;;;;;;29.37;16.83;;;;;;;8.87;100.00;100409.66;5109683;28;20305;-61
2023/01/23 12:28:47;;;;;;;36.10;17.23;;;;;;;8.90;100.00;100403.59;5109838;28;20260;-59
2023/01/23 12:31:42;;;;;;;29.77;17.10;;;;;;;8.89;100.00;100417.41;5109584;28;20234;-60
2023/01/23 12:34:44;;;;;;;36.50;16.50;;;;;;;8.82;100.00;100411.41;5109254;28;20598;-59
2023/01/23 12:37:52;;;;;;;31.97;16.53;;;;;;;8.65;100.00;100393.44;5106353;28;20301;-60
2023/01/23 12:40:37;;;;;;;31.03;16.80;;;;;;;8.59;100.00;100402.94;5109199;28;20262;-59
2023/01/23 12:43:34;;;;;;;32.43;16.80;;;;;;;8.61;100.00;100417.59;5109694;28;20702;-60
2023/01/23 12:46:18;;;;;;;29.87;15.87;;;;;;;8.49;100.00;100420.25;5108842;28;20204;-59
2023/01/23 12:49:08;;;;;;;23.27;13.70;;;;;;;8.36;100.00;100423.78;5109678;28;20187;-60
2023/01/23 12:51:53;;;;;;;29.63;16.63;;;;;;;8.31;100.00;100435.84;5108526;28;20673;-61
2023/01/23 12:54:57;;;;;;;34.43;17.13;;;;;;;8.26;100.00;100429.84;5109277;28;20191;-61
2023/01/23 12:57:50;;;;;;;41.00;16.97;;;;;;;8.17;100.00;100445.41;5109453;28;20568;-61
2023/01/23 13:00:39;;;;;;;28.17;13.50;;;;;;;7.99;100.00;100447.22;5108421;28;20198;-60
2023/01/23 13:03:40;;;;;;;31.33;17.67;;;;;;;8.01;100.00;100439.44;5110731;28;20651;-60
2023/01/23 13:06:53;;;;;;;33.83;16.83;;;;;;;7.93;100.00;100438.59;5107978;28;20322;-61
2023/01/23 13:09:50;;;;;;;33.67;16.97;;;;;;;7.89;100.00;100430.00;5108602;28;20737;-60
2023/01/23 13:12:35;;;;;;;39.87;17.23;;;;;;;7.80;100.00;100424.84;5109875;28;20252;-56
2023/01/23 13:15:31;;;;;;;36.70;18.43;;;;;;;7.88;100.00;100440.34;5108552;28;20685;-55
2023/01/23 13:18:13;;;;;;;33.70;18.40;;;;;;;7.89;100.00;100431.72;5109427;28;20191;-56
2023/01/23 13:27:54;;;;;;;36.93;17.63;;;;;;;7.75;100.00;100423.16;5108699;28;20323;-55
2023/01/23 13:31:04;;;;;;;45.40;18.30;;;;;;;7.86;100.00;100437.75;5108900;28;20187;-56
2023/01/23 13:34:04;;;;;;;31.03;15.87;;;;;;;7.77;100.00;100450.72;5109875;28;20791;-55
2023/01/23 13:36:39;;;;;;;38.63;16.40;;;;;;;7.72;100.00;100424.00;5109777;28;20687;-60
2023/01/23 13:39:51;;;;;;;26.17;12.43;;;;;;;7.84;100.00;100439.47;5110256;28;20194;-60
2023/01/23 13:46:11;;;;;;;28.77;14.33;;;;;;;7.79;100.00;100456.72;5107750;28;20657;-60
2023/01/23 13:58:40;;;;;;;23.73;12.93;;;;;;;7.82;100.00;100469.63;5110416;28;20225;-55
2023/01/23 14:11:00;;;;;;;30.30;15.07;;;;;;;7.86;100.00;100465.34;5109101;28;20248;-56
2023/01/23 14:16:08;;;;;;;36.10;16.63;;;;;;;7.88;100.00;100467.06;5109085;28;20187;-55
2023/01/23 14:17:24;;;;;;;33.73;14.80;;;;;;;7.81;100.00;100467.91;5108661;28;20289;-55
2023/01/23 14:20:40;;;;;;;27.73;12.23;;;;;;;7.82;100.00;100468.78;5110736;28;20201;-56
2023/01/23 14:23:42;;;;;;;20.63;11.20;;;;;;;7.81;100.00;100457.56;5107283;28;20197;-56
2023/01/23 14:26:53;;;;;;;33.97;15.40;;;;;;;7.59;100.00;100438.69;5111343;28;20603;-56
2023/01/23 14:29:48;;;;;;;25.27;13.30;;;;;;;7.81;100.00;100469.63;5111112;28;20195;-60
2023/01/23 14:32:38;;;;;;;29.30;13.23;;;;;;;7.69;100.00;100456.75;5110885;28;20194;-60
2023/01/23 14:35:26;;;;;;;24.60;12.47;;;;;;;7.76;100.00;100473.97;5109416;28;20594;-60
2023/01/23 14:38:17;;;;;;;23.77;11.60;;;;;;;7.65;100.00;100474.00;5110828;28;20505;-61
2023/01/23 14:41:03;;;;;;;28.37;14.30;;;;;;;7.63;100.00;100460.22;5110820;28;20317;-57
2023/01/23 14:43:51;;;;;;;25.53;14.97;;;;;;;7.69;100.00;100483.44;5110213;28;20199;-56
2023/01/23 14:47:00;;;;;;;28.87;13.10;;;;;;;7.63;100.00;100467.97;5105439;28;20195;-56
2023/01/23 14:49:53;;;;;;;25.53;11.80;;;;;;;7.68;100.00;100466.22;5107464;28;20209;-61
2023/01/23 14:52:54;;;;;;;22.40;11.47;;;;;;;7.67;100.00;100469.69;5107284;28;20206;-59
2023/01/23 14:55:33;;;;;;;28.00;13.00;;;;;;;7.66;100.00;100483.47;5107510;28;20198;-60
2023/01/23 14:58:35;;;;;;;26.13;14.60;;;;;;;7.69;100.00;100492.91;5109438;28;20196;-56
2023/01/23 15:01:11;;;;;;;26.77;14.80;;;;;;;7.72;100.00;100487.75;5110879;28;20194;-59
2023/01/23 15:04:30;;;;;;;29.67;13.40;;;;;;;7.74;100.00;100492.06;5108086;28;20198;-58
2023/01/23 15:07:06;;;;;;;23.37;13.97;;;;;;;7.57;100.00;100457.63;5106577;28;20297;-59
2023/01/23 15:13:27;;;;;;;23.83;13.17;;;;;;;7.65;100.00;100486.91;5107408;28;20281;-58
2023/01/23 15:19:30;;;;;;;23.87;12.47;;;;;;;7.58;100.00;100490.34;5109077;28;20215;-60
2023/01/23 15:22:56;;;;;;;32.57;15.17;;;;;;;7.65;100.00;100489.50;5109220;28;20229;-58
2023/01/23 15:29:18;;;;;;;23.17;13.10;;;;;;;7.46;100.00;100504.13;5109533;28;20277;-59
2023/01/23 15:32:09;;;;;;;30.57;15.43;;;;;;;7.46;100.00;100495.53;5109079;28;20281;-58
2023/01/23 15:35:33;;;;;;;27.33;15.80;;;;;;;7.49;100.00;100495.53;5109801;28;20210;-58
2023/01/23 15:38:32;;;;;;;88.73;35.87;;;;;;;7.56;100.00;100507.59;5110308;28;20247;-59
2023/01/23 15:44:52;;;;;;;41.90;20.70;;;;;;;7.57;100.00;100509.28;5109299;28;20202;-58
2023/01/23 15:47:50;;;;;;;;;;;;;;;;;;;;;
2023/01/23 15:50:53;;;;;;;36.57;17.87;;;;;;;7.55;100.00;100526.53;5109210;28;20205;-59